createdAt,value
2022-08-31T00:06:38.656Z,12.40
2022-08-31T00:16:48.459Z,13.10
2022-08-31T00:26:55.628Z,8.80
2022-08-31T00:37:04.281Z,16.60
2022-08-31T00:47:12.490Z,13.80
2022-08-31T00:57:20.825Z,14.90
2022-08-31T01:07:38.197Z,24.20
2022-08-31T01:17:48.022Z,14.70
2022-08-31T01:27:56.490Z,15.80
2022-08-31T01:38:04.664Z,16.00
2022-08-31T01:48:11.886Z,21.10
2022-08-31T01:58:19.577Z,17.80
2022-08-31T02:08:26.756Z,19.00
2022-08-31T02:18:35.566Z,17.00
2022-08-31T02:28:42.953Z,16.40
2022-08-31T02:38:50.440Z,18.80
2022-08-31T02:48:58.325Z,18.20
2022-08-31T02:59:05.854Z,12.00
2022-08-31T03:09:13.202Z,13.80
2022-08-31T03:19:20.663Z,15.40
2022-08-31T03:29:27.966Z,17.00
2022-08-31T03:39:35.041Z,12.20
2022-08-31T03:49:42.637Z,10.80
2022-08-31T03:59:53.277Z,11.00
2022-08-31T04:10:01.107Z,9.00
2022-08-31T04:20:05.767Z,10.90
2022-08-31T04:30:14.646Z,9.60
2022-08-31T04:40:25.958Z,7.80
2022-08-31T04:50:33.537Z,7.60
2022-08-31T05:00:42.910Z,13.60
2022-08-31T05:10:50.393Z,16.90
2022-08-31T05:20:57.563Z,77.20
2022-08-31T05:31:07.283Z,32.70
2022-08-31T05:41:15.180Z,11.40
2022-08-31T05:51:22.481Z,6.90
2022-08-31T06:01:32.657Z,12.00
2022-08-31T06:11:42.289Z,11.90
2022-08-31T06:21:51.061Z,10.90
2022-08-31T06:31:57.187Z,8.00
2022-08-31T06:42:04.491Z,5.70
2022-08-31T06:52:11.629Z,6.80
2022-08-31T07:02:19.609Z,10.00
2022-08-31T07:12:26.939Z,4.90
2022-08-31T07:32:40.654Z,6.30
2022-08-31T07:42:48.490Z,4.00
2022-08-31T07:52:58.740Z,6.40
2022-08-31T08:13:13.718Z,8.80
2022-08-31T08:23:26.894Z,6.10
2022-08-31T08:33:36.831Z,7.20
2022-08-31T08:43:53.554Z,3.70
2022-08-31T08:54:03.196Z,1.60
2022-08-31T09:04:16.024Z,1.40
2022-08-31T09:14:25.698Z,4.20
2022-08-31T09:24:32.847Z,3.90
2022-08-31T09:34:41.350Z,5.90
2022-08-31T09:44:48.522Z,4.60
2022-08-31T10:05:28.496Z,4.90
2022-08-31T10:15:33.790Z,2.40
2022-08-31T10:25:46.444Z,14.40
2022-08-31T10:35:52.439Z,5.90
2022-08-31T10:46:03.795Z,4.70
2022-08-31T10:56:15.480Z,2.80
2022-08-31T11:06:20.733Z,0.90
2022-08-31T11:16:34.091Z,1.00
2022-08-31T11:26:46.431Z,4.60
2022-08-31T11:47:09.063Z,1.80
2022-08-31T11:57:21.193Z,2.00
2022-08-31T12:07:30.349Z,6.60
2022-08-31T12:17:45.880Z,2.20
2022-08-31T12:27:51.823Z,5.20
2022-08-31T12:38:04.600Z,2.90
2022-08-31T12:48:11.311Z,2.30
2022-08-31T13:08:28.859Z,3.40
2022-08-31T13:18:36.880Z,2.70
2022-08-31T13:38:47.592Z,0.90
2022-08-31T13:49:02.609Z,1.70
2022-08-31T13:59:26.757Z,2.40
2022-08-31T14:09:34.114Z,4.10
2022-08-31T14:19:44.032Z,2.90
2022-08-31T14:29:52.469Z,1.80
2022-08-31T14:40:07.055Z,3.20
2022-08-31T14:50:18.853Z,2.10
2022-08-31T15:00:25.855Z,3.30
2022-08-31T15:10:33.862Z,4.20
2022-08-31T15:30:47.952Z,2.00
2022-08-31T15:40:55.260Z,3.80
2022-08-31T15:51:03.339Z,3.10
2022-08-31T16:01:07.666Z,5.10
2022-08-31T16:11:15.532Z,3.20
2022-08-31T16:21:23.195Z,3.00
2022-08-31T16:31:30.932Z,6.00
2022-08-31T16:41:38.249Z,6.70
2022-08-31T16:51:48.457Z,1.30
2022-08-31T17:01:56.635Z,7.10
2022-08-31T17:12:07.765Z,6.00
2022-08-31T17:22:23.352Z,10.10
2022-08-31T17:32:32.469Z,8.00
2022-08-31T17:42:39.601Z,3.70
2022-08-31T17:52:47.714Z,9.50
2022-08-31T18:02:55.171Z,10.00
2022-08-31T18:13:03.381Z,5.60
2022-08-31T18:23:10.877Z,9.50
2022-08-31T18:33:18.650Z,11.10
2022-08-31T18:43:46.479Z,8.30
2022-08-31T18:53:53.803Z,9.30
2022-08-31T19:04:00.236Z,8.30
2022-08-31T19:14:08.161Z,19.60
2022-08-31T19:24:19.170Z,17.70
2022-08-31T19:34:29.624Z,26.80
2022-08-31T19:44:55.971Z,39.30
2022-08-31T19:55:09.437Z,35.40
2022-08-31T20:05:16.950Z,30.30
2022-08-31T20:15:24.506Z,31.70
2022-08-31T20:25:30.548Z,24.40
2022-08-31T20:46:02.082Z,17.40
2022-08-31T20:56:10.387Z,13.50
2022-08-31T21:06:24.229Z,13.80
2022-08-31T21:16:33.260Z,15.40
2022-08-31T21:36:48.635Z,13.10
2022-08-31T21:46:56.004Z,10.30
2022-08-31T21:57:05.259Z,12.50
2022-08-31T22:07:14.692Z,31.50
2022-08-31T22:17:36.940Z,9.80
2022-08-31T22:27:51.479Z,10.50
2022-08-31T22:37:58.567Z,9.00
2022-08-31T22:48:04.901Z,9.90
2022-08-31T22:58:12.430Z,12.40
2022-08-31T23:08:22.592Z,11.70
2022-08-31T23:18:31.450Z,8.50
2022-08-31T23:28:37.764Z,9.30
2022-08-31T23:38:50.009Z,7.10
2022-08-31T23:48:57.306Z,6.60
2022-08-31T23:59:07.321Z,7.50
